Time;durP1;ratioP1;P1;durP2;ratioP2;P2;SDS_P1;SDS_P2;PMS_P1;PMS_P2;Temp;Humidity;BMP_temperature;BMP_pressure;BME280_temperature;BME280_humidity;BME280_pressure;Samples;Min_cycle;Max_cycle;Signal;HPM_P1;HPM_P2
2021/12/29 00:00:37;;;;;;;13.10;8.07;;;9.40;99.90;;;;;;4957638;28;20250;-77
2021/12/29 00:03:04;;;;;;;15.67;9.03;;;9.40;99.90;;;;;;4956069;28;20204;-77
2021/12/29 00:05:31;;;;;;;15.47;7.63;;;9.40;99.90;;;;;;4954091;28;20227;-77
2021/12/29 00:07:58;;;;;;;15.13;9.00;;;9.40;99.90;;;;;;4954215;28;20686;-78
2021/12/29 00:10:26;;;;;;;13.70;8.47;;;9.40;99.90;;;;;;4951391;29;20619;-77
2021/12/29 00:12:54;;;;;;;14.83;9.17;;;9.40;99.90;;;;;;4958073;28;20211;-77
2021/12/29 00:15:25;;;;;;;15.07;7.70;;;9.50;99.90;;;;;;4955348;28;20208;-77
2021/12/29 00:17:53;;;;;;;11.27;7.33;;;9.40;99.90;;;;;;4969060;28;20242;-77
2021/12/29 00:20:24;;;;;;;12.03;7.23;;;9.50;99.90;;;;;;4936151;29;20232;-77
2021/12/29 00:22:51;;;;;;;12.27;7.00;;;9.50;99.90;;;;;;4933904;29;20292;-79
2021/12/29 00:25:17;;;;;;;13.90;7.00;;;9.50;99.90;;;;;;4936405;29;20243;-76
2021/12/29 00:27:44;;;;;;;13.23;6.93;;;9.50;99.90;;;;;;4967806;28;20306;-77
2021/12/29 00:30:13;;;;;;;13.33;6.33;;;9.50;99.90;;;;;;4942114;28;20224;-77
2021/12/29 00:32:41;;;;;;;10.97;5.47;;;9.50;99.90;;;;;;4932009;29;20681;-77
2021/12/29 00:35:11;;;;;;;11.27;5.10;;;9.50;99.90;;;;;;4938453;29;20215;-78
2021/12/29 00:37:39;;;;;;;9.50;5.07;;;9.50;99.90;;;;;;4934402;29;20279;-77
2021/12/29 00:40:06;;;;;;;7.83;4.73;;;9.50;99.90;;;;;;4937322;29;20220;-78
2021/12/29 00:42:33;;;;;;;9.03;4.77;;;9.50;99.90;;;;;;4934435;29;20206;-77
2021/12/29 00:45:00;;;;;;;7.23;4.40;;;9.50;99.90;;;;;;4937524;29;20222;-76
2021/12/29 00:47:32;;;;;;;7.97;4.40;;;9.40;99.90;;;;;;4939634;29;20216;-78
2021/12/29 00:50:01;;;;;;;10.20;4.53;;;9.40;99.90;;;;;;4938281;29;20320;-77
2021/12/29 00:52:28;;;;;;;9.70;5.30;;;9.40;99.90;;;;;;4939158;29;20280;-76
2021/12/29 00:54:54;;;;;;;11.93;5.30;;;9.40;99.90;;;;;;4934620;29;20799;-77
2021/12/29 00:57:21;;;;;;;11.67;5.87;;;9.50;99.90;;;;;;4933060;28;20213;-76
2021/12/29 00:59:48;;;;;;;11.70;5.90;;;9.40;99.90;;;;;;4940258;29;20661;-76
2021/12/29 01:02:15;;;;;;;9.57;5.60;;;9.40;99.90;;;;;;4940546;28;20203;-76
2021/12/29 01:04:42;;;;;;;14.70;5.70;;;9.50;99.90;;;;;;4934873;29;20229;-77
2021/12/29 01:07:09;;;;;;;10.03;5.20;;;9.50;99.90;;;;;;4936281;29;20286;-76
2021/12/29 01:09:36;;;;;;;9.03;4.90;;;9.40;99.90;;;;;;4934581;29;20255;-76
2021/12/29 01:12:06;;;;;;;10.83;4.83;;;9.40;99.90;;;;;;4939396;29;20232;-77
2021/12/29 01:14:33;;;;;;;9.87;4.77;;;9.40;99.90;;;;;;4936664;29;20279;-75
2021/12/29 01:16:59;;;;;;;15.27;5.60;;;9.40;99.90;;;;;;4935242;28;20375;-76
2021/12/29 01:19:30;;;;;;;16.20;7.27;;;9.50;99.90;;;;;;4953330;28;20310;-77
2021/12/29 01:21:59;;;;;;;15.53;7.13;;;9.40;99.90;;;;;;4948980;28;20221;-76
2021/12/29 01:24:28;;;;;;;14.03;6.90;;;9.40;99.90;;;;;;4948380;28;20652;-77
2021/12/29 01:26:56;;;;;;;18.30;7.27;;;9.30;99.90;;;;;;4947921;28;20295;-74
2021/12/29 01:29:26;;;;;;;16.30;7.53;;;9.30;99.90;;;;;;4927419;29;20259;-76
2021/12/29 01:31:52;;;;;;;16.53;7.47;;;9.30;99.90;;;;;;4954092;28;20306;-76
2021/12/29 01:34:19;;;;;;;17.43;7.53;;;9.30;99.90;;;;;;4950669;28;20225;-75
2021/12/29 01:36:46;;;;;;;20.60;7.63;;;9.30;99.90;;;;;;4951430;28;20275;-76
2021/12/29 01:39:15;;;;;;;19.57;8.10;;;9.30;99.90;;;;;;4953928;28;20237;-77
2021/12/29 01:41:44;;;;;;;20.27;7.57;;;9.20;99.90;;;;;;4953758;28;20665;-76
2021/12/29 01:44:13;;;;;;;15.30;7.83;;;9.20;99.90;;;;;;4938743;29;20215;-76
2021/12/29 01:46:41;;;;;;;19.40;8.23;;;9.20;99.90;;;;;;4952372;28;20675;-76
2021/12/29 01:49:08;;;;;;;17.57;7.57;;;9.20;99.90;;;;;;4958875;28;20222;-76
2021/12/29 01:51:36;;;;;;;16.37;6.63;;;9.20;99.90;;;;;;4955165;28;20232;-75
2021/12/29 01:54:23;;;;;;;11.37;6.17;;;9.20;99.90;;;;;;4949470;29;20215;-77
2021/12/29 01:56:54;;;;;;;13.27;6.57;;;9.20;99.90;;;;;;4932897;29;20305;-75
2021/12/29 01:59:22;;;;;;;13.27;6.17;;;9.20;99.90;;;;;;4927465;28;20296;-76
2021/12/29 02:01:50;;;;;;;19.33;7.20;;;9.20;99.90;;;;;;4951727;28;20262;-76
2021/12/29 02:04:18;;;;;;;15.67;7.23;;;9.10;99.90;;;;;;4974102;28;20226;-76
2021/12/29 02:06:46;;;;;;;15.10;7.10;;;9.10;99.90;;;;;;4955549;28;20571;-76
2021/12/29 02:09:16;;;;;;;14.00;7.03;;;9.20;99.90;;;;;;4946385;28;20206;-76
2021/12/29 02:11:45;;;;;;;11.97;6.20;;;9.10;99.90;;;;;;4951583;28;20675;-76
2021/12/29 02:14:12;;;;;;;13.20;6.87;;;9.00;99.90;;;;;;4959300;28;20640;-75
2021/12/29 02:16:39;;;;;;;17.27;7.07;;;9.10;99.90;;;;;;4957137;28;20641;-76
2021/12/29 02:19:10;;;;;;;14.30;6.93;;;9.10;99.90;;;;;;4955031;28;20640;-75
2021/12/29 02:21:38;;;;;;;15.27;6.70;;;9.10;99.90;;;;;;4955253;28;20205;-75
2021/12/29 02:26:40;;;;;;;14.40;6.60;;;9.10;99.90;;;;;;4963594;29;20219;-76
2021/12/29 02:29:09;;;;;;;13.00;6.80;;;9.10;99.90;;;;;;4972143;28;20198;-76
2021/12/29 02:31:37;;;;;;;16.90;7.10;;;9.10;99.90;;;;;;4966225;28;20624;-78
2021/12/29 02:34:07;;;;;;;16.73;7.10;;;9.10;99.90;;;;;;4966866;28;20334;-77
2021/12/29 02:36:34;;;;;;;14.30;6.77;;;9.10;99.90;;;;;;4958510;28;20217;-76
2021/12/29 02:39:04;;;;;;;12.23;5.90;;;9.10;99.90;;;;;;4963796;28;20284;-77
2021/12/29 02:41:31;;;;;;;13.30;6.20;;;9.10;99.90;;;;;;4975677;28;20305;-76
2021/12/29 02:44:01;;;;;;;15.17;6.67;;;9.10;99.90;;;;;;4960917;28;20208;-78
2021/12/29 02:46:29;;;;;;;14.83;6.43;;;9.10;99.90;;;;;;4955582;28;20330;-75
2021/12/29 02:48:59;;;;;;;15.80;5.87;;;9.10;99.90;;;;;;4955587;28;20208;-77
2021/12/29 02:51:27;;;;;;;16.93;6.07;;;9.10;99.90;;;;;;4956875;28;20261;-77
2021/12/29 02:53:54;;;;;;;11.83;6.00;;;9.10;99.90;;;;;;4953314;28;20207;-77
2021/12/29 02:56:26;;;;;;;10.47;6.13;;;9.00;99.90;;;;;;4957279;28;20294;-76
2021/12/29 02:58:54;;;;;;;14.63;6.40;;;9.10;99.90;;;;;;4953493;28;20697;-76
2021/12/29 03:01:21;;;;;;;18.70;6.90;;;9.00;99.90;;;;;;4957885;28;20723;-77
2021/12/29 03:03:48;;;;;;;14.60;7.70;;;9.00;99.90;;;;;;4954868;28;20566;-76
2021/12/29 03:06:15;;;;;;;15.20;6.17;;;9.10;99.90;;;;;;4961606;28;20649;-77
2021/12/29 03:08:42;;;;;;;15.83;6.63;;;9.10;99.90;;;;;;4956349;28;20215;-76
2021/12/29 03:11:09;;;;;;;15.40;7.40;;;9.10;99.90;;;;;;4961002;28;20655;-76
2021/12/29 03:13:38;;;;;;;13.90;6.70;;;9.10;99.90;;;;;;4958906;28;20524;-77
2021/12/29 03:16:07;;;;;;;18.17;6.60;;;9.10;99.90;;;;;;4959112;28;20210;-77
2021/12/29 03:18:34;;;;;;;17.53;7.10;;;9.10;99.90;;;;;;4959627;28;20242;-76
2021/12/29 03:21:01;;;;;;;17.17;7.47;;;9.10;99.90;;;;;;4958616;28;20273;-76
2021/12/29 03:23:28;;;;;;;16.47;6.63;;;9.10;99.90;;;;;;4957920;28;20223;-76
2021/12/29 03:25:55;;;;;;;14.20;6.40;;;9.10;99.90;;;;;;4956405;28;20214;-77
2021/12/29 03:28:24;;;;;;;18.03;6.80;;;9.10;99.90;;;;;;4958927;28;20242;-77
2021/12/29 03:30:54;;;;;;;13.70;5.80;;;9.10;99.90;;;;;;4954895;28;20211;-76
2021/12/29 03:33:23;;;;;;;12.43;5.90;;;9.10;99.90;;;;;;4952722;28;20214;-76
2021/12/29 03:35:53;;;;;;;17.20;6.60;;;9.10;99.90;;;;;;4957606;28;20350;-76
2021/12/29 03:38:23;;;;;;;16.23;6.73;;;9.10;99.90;;;;;;4957613;28;20501;-77
2021/12/29 03:40:51;;;;;;;14.87;6.67;;;9.10;99.90;;;;;;4961062;28;20598;-76
2021/12/29 03:43:18;;;;;;;14.53;6.30;;;9.10;99.90;;;;;;4961323;28;20265;-77
2021/12/29 03:45:50;;;;;;;14.20;7.07;;;9.00;99.90;;;;;;4958704;28;20219;-75
2021/12/29 03:48:17;;;;;;;14.40;6.27;;;9.00;99.90;;;;;;4956759;28;20279;-76
2021/12/29 03:50:46;;;;;;;17.07;6.43;;;9.00;99.90;;;;;;4961247;28;20262;-77
2021/12/29 03:53:14;;;;;;;17.23;6.10;;;9.00;99.90;;;;;;4961859;28;20680;-77
2021/12/29 03:55:46;;;;;;;13.90;4.73;;;9.10;99.90;;;;;;4951886;28;20204;-76
2021/12/29 03:58:13;;;;;;;13.63;5.23;;;9.10;99.90;;;;;;4951722;28;20721;-75
2021/12/29 04:00:40;;;;;;;16.67;5.10;;;9.10;99.90;;;;;;4943724;28;20212;-76
2021/12/29 04:03:07;;;;;;;18.57;6.07;;;9.10;99.90;;;;;;4961657;28;20211;-77
2021/12/29 04:05:34;;;;;;;20.13;6.17;;;9.10;99.90;;;;;;4959359;28;20232;-76
2021/12/29 04:08:02;;;;;;;20.37;6.63;;;9.10;99.90;;;;;;4958030;28;20648;-77
2021/12/29 04:10:29;;;;;;;12.00;5.53;;;9.10;99.90;;;;;;4959019;28;20219;-76
2021/12/29 04:12:58;;;;;;;23.57;5.80;;;9.10;99.90;;;;;;4959685;28;20235;-76
2021/12/29 04:15:25;;;;;;;17.60;6.33;;;9.10;99.90;;;;;;4965090;28;20263;-76
2021/12/29 04:17:58;;;;;;;15.30;6.23;;;9.10;99.90;;;;;;4959330;28;20283;-76
2021/12/29 04:23:18;;;;;;;22.30;6.90;;;9.10;99.90;;;;;;4958406;28;20299;-77
2021/12/29 04:25:49;;;;;;;20.87;7.53;;;9.10;99.90;;;;;;4951098;28;20243;-77
2021/12/29 04:28:20;;;;;;;17.77;7.47;;;9.10;99.90;;;;;;4954055;28;20255;-76
2021/12/29 04:30:49;;;;;;;23.53;8.43;;;9.10;99.90;;;;;;4956235;28;20216;-76
2021/12/29 04:33:17;;;;;;;19.87;8.17;;;9.10;99.90;;;;;;4956164;28;20238;-76
2021/12/29 04:35:46;;;;;;;21.57;8.50;;;9.10;99.90;;;;;;4958288;28;20223;-76
2021/12/29 04:38:13;;;;;;;30.77;10.07;;;9.10;99.90;;;;;;4956216;28;20252;-75
2021/12/29 04:40:40;;;;;;;22.90;9.10;;;9.10;99.90;;;;;;4955762;28;20235;-76
2021/12/29 04:43:07;;;;;;;31.23;8.77;;;9.20;99.90;;;;;;4940164;28;20287;-77
2021/12/29 04:45:34;;;;;;;24.87;7.63;;;9.10;99.90;;;;;;4957705;28;20223;-76
2021/12/29 04:48:01;;;;;;;28.57;8.40;;;9.10;99.90;;;;;;4956590;28;20613;-76
2021/12/29 04:50:37;;;;;;;31.40;8.90;;;9.10;99.90;;;;;;4957134;28;20299;-77
2021/12/29 04:53:06;;;;;;;28.40;8.63;;;9.10;99.90;;;;;;4958307;28;20313;-78
2021/12/29 04:55:34;;;;;;;28.33;8.30;;;9.10;99.90;;;;;;4939685;28;20238;-76
2021/12/29 04:58:01;;;;;;;25.50;8.13;;;9.20;99.90;;;;;;4957222;28;20298;-77
2021/12/29 05:00:30;;;;;;;28.30;8.80;;;9.10;99.90;;;;;;4952216;28;20220;-76
2021/12/29 05:02:58;;;;;;;22.17;9.07;;;9.10;99.90;;;;;;4954762;28;20202;-76
2021/12/29 05:10:46;;;;;;;26.37;8.80;;;9.10;99.90;;;;;;4953079;28;20252;-77
2021/12/29 05:13:14;;;;;;;24.23;7.57;;;9.10;99.90;;;;;;4952613;28;20243;-76
2021/12/29 05:15:41;;;;;;;27.77;8.50;;;9.10;99.90;;;;;;4954148;28;20736;-76
2021/12/29 05:18:09;;;;;;;27.87;8.17;;;9.10;99.90;;;;;;4953663;28;20232;-76
2021/12/29 05:20:36;;;;;;;28.50;8.53;;;9.10;99.90;;;;;;4960000;28;20277;-76
2021/12/29 05:23:04;;;;;;;25.07;8.73;;;9.20;99.90;;;;;;4954347;28;20287;-76
2021/12/29 05:25:31;;;;;;;25.53;8.97;;;9.20;99.90;;;;;;4954544;28;20658;-76
2021/12/29 05:27:58;;;;;;;25.90;9.37;;;9.20;99.90;;;;;;4958522;28;20590;-77
2021/12/29 05:30:26;;;;;;;22.80;9.53;;;9.10;99.90;;;;;;4950510;28;20563;-75
2021/12/29 05:32:53;;;;;;;30.67;10.10;;;9.20;99.90;;;;;;4955625;28;21078;-77
2021/12/29 05:35:26;;;;;;;28.27;10.90;;;9.20;99.90;;;;;;4944993;28;20222;-76
2021/12/29 05:37:53;;;;;;;30.47;10.67;;;9.20;99.90;;;;;;4937531;29;20307;-76
2021/12/29 05:40:20;;;;;;;31.13;10.97;;;9.20;99.90;;;;;;4942766;28;20253;-77
2021/12/29 05:42:47;;;;;;;29.37;10.33;;;9.20;99.90;;;;;;4953585;28;20214;-77
2021/12/29 05:45:14;;;;;;;29.93;11.13;;;9.20;99.90;;;;;;4951826;28;20579;-76
2021/12/29 05:47:41;;;;;;;32.30;11.93;;;9.20;99.90;;;;;;4953750;28;20215;-76
2021/12/29 05:50:12;;;;;;;35.43;12.53;;;9.30;99.90;;;;;;4944967;28;20695;-77
2021/12/29 05:52:39;;;;;;;43.05;16.95;;;9.30;99.90;;;;;;4955141;28;20625;-76
2021/12/29 05:55:06;;;;;;;32.03;13.10;;;9.40;99.90;;;;;;4953821;28;20279;-76
2021/12/29 05:57:33;;;;;;;35.50;13.07;;;9.40;99.90;;;;;;4958535;28;20216;-75
2021/12/29 06:00:02;;;;;;;34.20;14.10;;;9.40;99.90;;;;;;4952153;28;20616;-76
2021/12/29 06:02:32;;;;;;;28.57;12.93;;;9.40;99.90;;;;;;4948842;29;20360;-76
2021/12/29 06:04:59;;;;;;;33.63;12.17;;;9.40;99.90;;;;;;4950325;29;20229;-75
2021/12/29 06:07:25;;;;;;;28.87;11.77;;;9.40;99.90;;;;;;4954096;28;20258;-77
2021/12/29 06:09:52;;;;;;;31.43;12.93;;;9.40;99.90;;;;;;4949727;28;20257;-76
2021/12/29 06:12:19;;;;;;;33.33;11.73;;;9.40;99.90;;;;;;4956725;28;20237;-75
2021/12/29 06:14:47;;;;;;;25.17;9.40;;;9.40;99.90;;;;;;4952094;28;20219;-75
2021/12/29 06:17:15;;;;;;;25.70;9.57;;;9.40;99.90;;;;;;4954118;28;20259;-75
2021/12/29 06:19:41;;;;;;;29.60;9.10;;;9.40;99.90;;;;;;4953183;28;20603;-76
2021/12/29 06:22:10;;;;;;;29.33;9.43;;;9.40;99.90;;;;;;4954468;28;20650;-77
2021/12/29 06:24:42;;;;;;;24.27;9.47;;;9.40;99.90;;;;;;4956428;28;20695;-75
2021/12/29 06:27:09;;;;;;;26.97;9.20;;;9.40;99.90;;;;;;4960660;28;20283;-77
2021/12/29 06:29:36;;;;;;;25.87;9.70;;;9.40;99.90;;;;;;4958911;28;20274;-76
2021/12/29 06:32:04;;;;;;;24.70;9.47;;;9.40;99.90;;;;;;4944192;28;20251;-76
2021/12/29 06:34:31;;;;;;;27.73;9.90;;;9.40;99.90;;;;;;4956891;28;20673;-76
2021/12/29 06:37:03;;;;;;;28.53;9.03;;;9.40;99.90;;;;;;4954864;28;20587;-76
2021/12/29 06:39:30;;;;;;;28.33;8.97;;;9.40;99.90;;;;;;4972225;28;20244;-76
2021/12/29 06:41:57;;;;;;;23.97;8.73;;;9.40;99.90;;;;;;4949641;28;20552;-76
2021/12/29 06:44:24;;;;;;;22.03;8.60;;;9.50;99.90;;;;;;4960580;28;20709;-76
2021/12/29 06:46:50;;;;;;;30.67;9.17;;;9.40;99.90;;;;;;4959513;28;20215;-76
2021/12/29 06:49:17;;;;;;;27.30;9.57;;;9.40;99.90;;;;;;4955411;28;20637;-76
2021/12/29 06:51:44;;;;;;;19.97;8.73;;;9.50;99.90;;;;;;4962992;28;20255;-76
2021/12/29 06:54:11;;;;;;;24.97;8.40;;;9.50;99.90;;;;;;4943211;28;20295;-76
2021/12/29 06:56:38;;;;;;;25.13;8.30;;;9.50;99.90;;;;;;4956312;28;20288;-76
2021/12/29 06:59:05;;;;;;;19.40;7.97;;;9.50;99.90;;;;;;4960758;28;20833;-76
2021/12/29 07:01:32;;;;;;;22.70;7.67;;;9.50;99.90;;;;;;4959259;28;20313;-76
2021/12/29 07:03:59;;;;;;;21.43;8.23;;;9.50;99.90;;;;;;4956557;28;20733;-75
2021/12/29 07:06:26;;;;;;;21.17;7.87;;;9.50;99.90;;;;;;4954500;28;20695;-76
2021/12/29 07:08:53;;;;;;;24.03;7.27;;;9.50;99.90;;;;;;4960309;28;20217;-76
2021/12/29 07:11:19;;;;;;;21.97;7.13;;;9.50;99.90;;;;;;4960093;28;20308;-76
2021/12/29 07:13:46;;;;;;;17.97;6.70;;;9.50;99.90;;;;;;4963963;28;20224;-76
2021/12/29 07:16:13;;;;;;;20.67;6.30;;;9.60;99.90;;;;;;4949717;28;20204;-76
2021/12/29 07:18:40;;;;;;;16.90;6.50;;;9.60;99.90;;;;;;4953486;28;20239;-75
2021/12/29 07:21:07;;;;;;;17.37;6.30;;;9.50;99.90;;;;;;4961524;28;20224;-76
2021/12/29 07:23:34;;;;;;;13.07;6.20;;;9.50;99.90;;;;;;4960247;28;20217;-75
2021/12/29 07:26:00;;;;;;;16.93;6.70;;;9.50;99.90;;;;;;4958315;28;20239;-77
2021/12/29 07:28:27;;;;;;;17.70;6.53;;;9.50;99.90;;;;;;4947333;28;20243;-76
2021/12/29 07:30:56;;;;;;;17.73;6.93;;;9.50;99.90;;;;;;4956752;28;20573;-77
2021/12/29 07:33:23;;;;;;;14.33;5.87;;;9.50;99.90;;;;;;4953348;28;20232;-76
2021/12/29 07:35:50;;;;;;;15.13;6.83;;;9.60;99.90;;;;;;4952763;28;20231;-76
2021/12/29 07:38:17;;;;;;;13.50;7.13;;;9.60;99.90;;;;;;4935986;29;20284;-77
2021/12/29 07:40:44;;;;;;;14.60;7.40;;;9.50;99.90;;;;;;4944919;28;20224;-75
2021/12/29 07:43:11;;;;;;;16.63;8.00;;;9.50;99.90;;;;;;4964924;28;20260;-74
2021/12/29 07:45:41;;;;;;;16.23;7.43;;;9.50;99.90;;;;;;4972130;28;20246;-76
2021/12/29 07:48:09;;;;;;;20.53;7.73;;;9.50;99.90;;;;;;4948006;29;20279;-76
2021/12/29 07:50:37;;;;;;;17.97;7.67;;;9.50;99.90;;;;;;4967626;28;20719;-76
2021/12/29 07:53:05;;;;;;;15.57;7.73;;;9.50;99.90;;;;;;4970913;28;20275;-75
2021/12/29 07:55:32;;;;;;;19.20;8.20;;;9.50;99.90;;;;;;4975686;28;20208;-75
2021/12/29 07:57:59;;;;;;;19.00;7.73;;;9.50;99.90;;;;;;4960527;28;20741;-75
2021/12/29 08:00:26;;;;;;;18.10;7.97;;;9.50;99.90;;;;;;4961884;28;20290;-76
2021/12/29 08:02:54;;;;;;;20.27;8.90;;;9.50;99.90;;;;;;4960269;28;20212;-76
2021/12/29 08:05:22;;;;;;;22.57;8.70;;;9.50;99.90;;;;;;4957889;28;20271;-75
2021/12/29 08:07:49;;;;;;;20.50;8.87;;;9.50;99.90;;;;;;4953862;29;20627;-76
2021/12/29 08:10:16;;;;;;;22.93;9.50;;;9.50;99.90;;;;;;4959011;28;20661;-75
2021/12/29 08:12:43;;;;;;;20.33;8.53;;;9.50;99.90;;;;;;4958501;28;20669;-75
2021/12/29 08:15:11;;;;;;;22.00;9.93;;;9.50;99.90;;;;;;4958294;28;20212;-75
2021/12/29 08:17:39;;;;;;;21.50;8.87;;;9.50;99.90;;;;;;4954615;28;20238;-78
2021/12/29 08:20:08;;;;;;;20.43;9.10;;;9.50;99.90;;;;;;4955962;28;20299;-76
2021/12/29 08:22:35;;;;;;;19.73;9.43;;;9.60;99.90;;;;;;4952496;28;20238;-76
2021/12/29 08:25:02;;;;;;;23.77;10.97;;;9.60;99.90;;;;;;4957965;28;20219;-76
2021/12/29 08:27:30;;;;;;;44.60;19.13;;;9.60;99.90;;;;;;4963513;28;20291;-75
2021/12/29 08:29:56;;;;;;;38.97;15.97;;;9.60;99.90;;;;;;4961288;28;20283;-75
2021/12/29 08:32:26;;;;;;;34.70;12.20;;;9.60;99.90;;;;;;4958127;28;20243;-76
2021/12/29 08:34:53;;;;;;;40.10;17.77;;;9.60;99.90;;;;;;4955405;28;20678;-76
2021/12/29 08:37:20;;;;;;;34.37;14.20;;;9.60;99.90;;;;;;4937557;29;20409;-75
2021/12/29 08:39:46;;;;;;;28.70;12.13;;;9.60;99.90;;;;;;4959462;28;20254;-77
2021/12/29 08:42:13;;;;;;;27.20;11.60;;;9.60;99.90;;;;;;4961227;28;20239;-76
2021/12/29 08:44:42;;;;;;;26.13;13.00;;;9.50;99.90;;;;;;4958809;28;20598;-76
2021/12/29 08:47:09;;;;;;;26.77;11.17;;;9.60;99.90;;;;;;4941862;28;20311;-76
2021/12/29 08:49:36;;;;;;;37.00;13.90;;;9.60;99.90;;;;;;4957023;28;20255;-77
2021/12/29 08:52:07;;;;;;;35.63;14.20;;;9.60;99.90;;;;;;4951283;29;20197;-76
2021/12/29 08:54:34;;;;;;;32.97;14.23;;;9.60;99.90;;;;;;4949650;28;20615;-74
2021/12/29 08:57:02;;;;;;;30.17;14.00;;;9.60;99.90;;;;;;4949642;28;20288;-75
2021/12/29 08:59:29;;;;;;;34.70;13.00;;;9.50;99.90;;;;;;4949689;28;20238;-76
2021/12/29 09:01:56;;;;;;;39.87;13.63;;;9.60;99.90;;;;;;4950769;28;20216;-76
2021/12/29 09:04:23;;;;;;;33.87;14.10;;;9.60;99.90;;;;;;4953025;28;20227;-75
2021/12/29 09:06:52;;;;;;;35.70;14.03;;;9.60;99.90;;;;;;4950627;29;20302;-76
2021/12/29 09:09:19;;;;;;;39.57;13.27;;;9.60;99.90;;;;;;4951384;28;20591;-76
2021/12/29 09:11:47;;;;;;;43.70;13.53;;;9.60;99.90;;;;;;4937886;28;20217;-76
2021/12/29 09:14:14;;;;;;;30.80;12.30;;;9.60;99.90;;;;;;4955524;28;20308;-76
2021/12/29 09:16:41;;;;;;;31.17;11.63;;;9.60;99.90;;;;;;4952077;28;20291;-75
2021/12/29 09:19:11;;;;;;;31.33;12.63;;;9.70;99.90;;;;;;4949692;28;20236;-76
2021/12/29 09:21:42;;;;;;;39.33;11.73;;;9.60;99.90;;;;;;4949888;28;20286;-75
2021/12/29 09:24:10;;;;;;;31.83;11.40;;;9.60;99.90;;;;;;4949317;29;20220;-76
2021/12/29 09:26:37;;;;;;;24.63;11.00;;;9.70;99.90;;;;;;4952030;28;20669;-75
2021/12/29 09:29:04;;;;;;;27.40;11.23;;;9.70;99.90;;;;;;4949871;29;20248;-77
2021/12/29 09:31:31;;;;;;;28.90;10.53;;;9.70;99.90;;;;;;4954366;28;20207;-76
2021/12/29 09:33:58;;;;;;;29.43;10.90;;;9.70;99.90;;;;;;4952917;28;20283;-75
2021/12/29 09:36:25;;;;;;;26.57;10.87;;;9.60;99.90;;;;;;4952999;28;20302;-76
2021/12/29 09:38:52;;;;;;;25.60;10.57;;;9.70;99.90;;;;;;4952252;28;20590;-75
2021/12/29 09:41:19;;;;;;;24.57;9.40;;;9.70;99.90;;;;;;4951413;28;20295;-76
2021/12/29 09:43:47;;;;;;;25.27;10.47;;;9.70;99.90;;;;;;4943972;29;20208;-76
2021/12/29 09:46:15;;;;;;;20.13;10.00;;;9.70;99.90;;;;;;4952856;28;20208;-75
2021/12/29 09:48:42;;;;;;;22.83;10.70;;;9.70;99.90;;;;;;4951333;28;20208;-75
2021/12/29 09:51:13;;;;;;;25.50;11.30;;;9.70;99.90;;;;;;4960245;28;20226;-76
2021/12/29 09:53:41;;;;;;;23.53;11.23;;;9.70;99.90;;;;;;4949561;28;20578;-76
2021/12/29 09:56:10;;;;;;;22.57;10.30;;;9.80;99.90;;;;;;4938719;29;20292;-76
2021/12/29 09:58:38;;;;;;;30.30;12.00;;;9.80;99.90;;;;;;4956386;28;20217;-76
2021/12/29 10:01:07;;;;;;;23.63;11.27;;;9.80;99.90;;;;;;4958222;28;20251;-76
2021/12/29 10:03:35;;;;;;;27.77;11.63;;;9.80;99.90;;;;;;4963730;28;20230;-76
2021/12/29 10:06:07;;;;;;;29.43;13.13;;;9.80;99.90;;;;;;4958400;28;20310;-77
2021/12/29 10:08:39;;;;;;;31.13;12.23;;;9.90;99.90;;;;;;4958750;28;20302;-76
2021/12/29 10:11:12;;;;;;;28.33;13.43;;;9.90;99.90;;;;;;4942021;28;20196;-76
2021/12/29 10:13:43;;;;;;;24.40;12.90;;;9.90;99.90;;;;;;4973482;28;20224;-76
2021/12/29 10:16:24;;;;;;;32.73;12.57;;;10.00;99.90;;;;;;4959427;28;20212;-76
2021/12/29 10:19:02;;;;;;;27.73;12.17;;;10.10;99.90;;;;;;4960457;28;20242;-76
2021/12/29 10:21:30;;;;;;;25.17;12.30;;;10.20;99.90;;;;;;4941453;29;20216;-77
2021/12/29 10:23:58;;;;;;;27.90;12.60;;;10.10;99.90;;;;;;4957030;28;20208;-77
2021/12/29 10:26:44;;;;;;;26.67;12.37;;;10.10;99.90;;;;;;4955871;28;20582;-76
2021/12/29 10:29:14;;;;;;;26.57;12.50;;;10.10;99.90;;;;;;4963146;28;20299;-76
2021/12/29 10:31:50;;;;;;;24.00;11.87;;;10.10;99.90;;;;;;4928511;29;20216;-77
2021/12/29 10:34:20;;;;;;;25.10;11.60;;;10.10;99.90;;;;;;4960516;28;20240;-76
2021/12/29 10:36:54;;;;;;;25.40;12.67;;;10.10;99.90;;;;;;4964307;28;20222;-77
2021/12/29 10:39:24;;;;;;;29.07;12.60;;;10.10;99.90;;;;;;4955048;28;20296;-76
2021/12/29 10:42:01;;;;;;;25.40;11.10;;;10.10;99.90;;;;;;4954713;28;20255;-76
2021/12/29 10:44:32;;;;;;;24.07;10.73;;;10.20;99.90;;;;;;4941826;28;20219;-76
2021/12/29 10:47:01;;;;;;;30.17;12.23;;;10.10;99.90;;;;;;4955198;28;20231;-74
2021/12/29 10:49:31;;;;;;;24.10;10.60;;;10.00;99.90;;;;;;4956476;28;20228;-77
2021/12/29 10:51:59;;;;;;;26.63;10.97;;;10.00;99.90;;;;;;4935652;29;20289;-77
2021/12/29 10:54:28;;;;;;;24.53;12.37;;;10.10;99.90;;;;;;4957381;28;20271;-76
2021/12/29 10:57:05;;;;;;;22.40;12.90;;;10.10;99.90;;;;;;4951740;28;20219;-78
2021/12/29 10:59:35;;;;;;;23.20;11.30;;;10.20;99.90;;;;;;4959490;28;20304;-76
2021/12/29 11:02:04;;;;;;;19.53;11.30;;;10.50;99.90;;;;;;4961378;28;20201;-78
2021/12/29 11:04:32;;;;;;;20.80;11.23;;;9.70;99.90;;;;;;4959674;28;20235;-77
2021/12/29 11:07:01;;;;;;;19.53;10.67;;;10.30;99.90;;;;;;4954723;28;20224;-77
2021/12/29 11:09:34;;;;;;;26.03;11.97;;;10.30;99.90;;;;;;4955535;28;20676;-77
2021/12/29 11:12:12;;;;;;;21.73;11.90;;;10.40;99.90;;;;;;4951540;28;20204;-77
2021/12/29 11:14:43;;;;;;;22.37;10.83;;;10.50;99.90;;;;;;4936437;29;20232;-76
2021/12/29 11:17:20;;;;;;;22.07;11.33;;;10.30;99.90;;;;;;4959369;28;20213;-79
2021/12/29 11:19:52;;;;;;;23.27;11.73;;;10.40;99.90;;;;;;4957888;28;20721;-78
2021/12/29 11:22:26;;;;;;;22.77;11.63;;;10.30;99.90;;;;;;4939502;28;20622;-80
2021/12/29 11:24:56;;;;;;;19.53;10.87;;;10.40;99.90;;;;;;4963814;28;20208;-77
2021/12/29 11:27:24;;;;;;;22.57;11.83;;;10.40;99.90;;;;;;4954545;28;20204;-77
2021/12/29 11:29:55;;;;;;;22.80;12.40;;;10.40;99.90;;;;;;4963876;28;20208;-77
2021/12/29 11:32:35;;;;;;;24.90;12.93;;;10.40;99.90;;;;;;4958230;28;20236;-78
2021/12/29 11:35:04;;;;;;;20.60;11.63;;;10.40;99.90;;;;;;4960897;28;20937;-77
2021/12/29 11:37:31;;;;;;;19.00;11.40;;;10.30;99.90;;;;;;4952724;28;20577;-77
2021/12/29 11:39:58;;;;;;;19.50;11.93;;;10.40;99.90;;;;;;4961530;28;20334;-77
2021/12/29 11:42:26;;;;;;;20.80;12.80;;;10.40;99.90;;;;;;4952372;28;20212;-77
2021/12/29 11:44:53;;;;;;;22.53;11.47;;;10.40;99.90;;;;;;4959130;28;20215;-77
2021/12/29 11:47:20;;;;;;;21.13;11.97;;;10.40;99.90;;;;;;4953988;28;20205;-78
2021/12/29 11:49:47;;;;;;;23.67;13.07;;;10.40;99.90;;;;;;4956403;28;20575;-77
2021/12/29 11:52:38;;;;;;;25.90;12.70;;;10.40;99.90;;;;;;4954788;28;20788;-77
2021/12/29 11:55:19;;;;;;;21.50;12.23;;;10.40;99.90;;;;;;4955512;28;20228;-77
2021/12/29 11:57:46;;;;;;;22.80;11.80;;;10.40;99.90;;;;;;4952979;28;20223;-77
2021/12/29 12:00:18;;;;;;;25.10;12.57;;;10.40;99.90;;;;;;4956385;28;20316;-78
2021/12/29 12:02:48;;;;;;;20.80;13.27;;;10.40;99.90;;;;;;4945225;28;20333;-78
2021/12/29 12:05:25;;;;;;;25.07;14.17;;;10.30;99.90;;;;;;4943407;28;20315;-77
2021/12/29 12:07:52;;;;;;;26.17;14.17;;;10.30;99.90;;;;;;4955101;28;20215;-78
2021/12/29 12:10:35;;;;;;;30.07;13.87;;;10.30;99.90;;;;;;4953196;28;20255;-76
2021/12/29 12:13:19;;;;;;;27.30;14.13;;;10.30;99.90;;;;;;4954300;28;20732;-77
2021/12/29 12:15:46;;;;;;;23.77;14.20;;;10.20;99.90;;;;;;4940239;28;20211;-78
2021/12/29 12:18:13;;;;;;;25.07;15.20;;;10.20;99.90;;;;;;4956241;28;20243;-77
2021/12/29 12:20:43;;;;;;;20.37;13.63;;;10.20;99.90;;;;;;4951804;28;20232;-79
2021/12/29 12:23:25;;;;;;;23.87;13.00;;;10.20;99.90;;;;;;4950364;28;20213;-76
2021/12/29 12:26:08;;;;;;;22.77;13.00;;;10.20;99.90;;;;;;4951552;28;20215;-78
2021/12/29 12:28:46;;;;;;;23.17;12.77;;;10.20;99.90;;;;;;4954255;28;20220;-78
2021/12/29 12:31:31;;;;;;;26.53;13.47;;;10.40;99.90;;;;;;4943382;29;20208;-78
2021/12/29 12:34:11;;;;;;;20.07;12.20;;;10.10;99.90;;;;;;4952715;28;20549;-76
2021/12/29 12:36:41;;;;;;;25.67;12.87;;;10.20;99.90;;;;;;4939947;28;20219;-77
2021/12/29 12:39:15;;;;;;;24.77;13.13;;;10.10;99.90;;;;;;4954997;28;20264;-77
2021/12/29 12:41:44;;;;;;;26.23;13.07;;;10.20;99.90;;;;;;4966984;28;20205;-76
2021/12/29 12:44:11;;;;;;;24.73;13.97;;;10.20;99.90;;;;;;4956285;28;20236;-76
2021/12/29 12:46:45;;;;;;;21.00;13.57;;;10.20;99.90;;;;;;4956688;28;20231;-77
2021/12/29 12:49:20;;;;;;;22.87;13.33;;;10.20;99.90;;;;;;4950579;28;20299;-76
2021/12/29 12:51:54;;;;;;;26.40;13.30;;;10.20;99.90;;;;;;4952912;28;20223;-77
2021/12/29 12:54:24;;;;;;;22.13;12.90;;;10.20;99.90;;;;;;4948777;28;20754;-76
2021/12/29 12:56:51;;;;;;;32.90;17.07;;;10.20;99.90;;;;;;4933166;29;20215;-76
2021/12/29 12:59:18;;;;;;;21.77;13.33;;;10.10;99.90;;;;;;4951077;28;20215;-76